Time;durP1;ratioP1;P1;durP2;ratioP2;P2;SDS_P1;SDS_P2;PMS_P1;PMS_P2;Temp;Humidity;BMP_temperature;BMP_pressure;BME280_temperature;BME280_humidity;BME280_pressure;Samples;Min_cycle;Max_cycle;Signal;HPM_P1;HPM_P2
2022/12/27 00:00:08;;;;;;;6.95;2.85;;;5.90;99.90;;;;;;2071434;28;20067;-70
2022/12/27 00:01:20;;;;;;;13.55;3.53;;;5.90;99.90;;;;;;2072549;28;20390;-70
2022/12/27 00:02:21;;;;;;;9.30;3.00;;;5.90;99.90;;;;;;2074661;28;20037;-69
2022/12/27 00:03:21;;;;;;;8.32;2.70;;;5.90;99.90;;;;;;2075104;28;20600;-69
2022/12/27 00:04:22;;;;;;;11.88;3.75;;;5.90;99.90;;;;;;2074133;28;20033;-70
2022/12/27 00:05:22;;;;;;;12.23;2.95;;;5.90;99.90;;;;;;2072699;28;20564;-69
2022/12/27 00:06:24;;;;;;;6.35;2.67;;;5.90;99.90;;;;;;2074516;28;20123;-69
2022/12/27 00:07:24;;;;;;;7.28;3.08;;;5.90;99.90;;;;;;2071289;28;20140;-69
2022/12/27 00:08:25;;;;;;;9.93;3.00;;;5.80;99.90;;;;;;2072579;28;20037;-69
2022/12/27 00:09:25;;;;;;;9.48;2.72;;;5.90;99.90;;;;;;2072557;28;20113;-69
2022/12/27 00:10:26;;;;;;;6.30;2.88;;;5.90;99.90;;;;;;2072682;28;20088;-69
2022/12/27 00:11:30;;;;;;;10.57;3.30;;;5.90;99.90;;;;;;2074862;28;20029;-69
2022/12/27 00:12:30;;;;;;;8.00;2.17;;;5.90;99.90;;;;;;2073159;28;20061;-69
2022/12/27 00:13:31;;;;;;;8.52;3.13;;;5.80;99.90;;;;;;2076699;28;20124;-69
2022/12/27 00:14:31;;;;;;;7.93;2.92;;;5.80;99.90;;;;;;2073819;28;20068;-69
2022/12/27 00:15:33;;;;;;;9.52;3.00;;;5.90;99.90;;;;;;2073906;28;20033;-70
2022/12/27 00:16:34;;;;;;;10.05;4.25;;;5.90;99.90;;;;;;2074283;28;20667;-69
2022/12/27 00:17:34;;;;;;;11.98;3.10;;;5.90;99.90;;;;;;2074514;28;20035;-69
2022/12/27 00:18:35;;;;;;;10.55;3.35;;;5.90;99.90;;;;;;2074654;28;20482;-69
2022/12/27 00:19:36;;;;;;;7.88;2.92;;;5.90;99.90;;;;;;2073618;28;20076;-69
2022/12/27 00:20:36;;;;;;;9.70;3.03;;;5.80;99.90;;;;;;2073313;28;20026;-69
2022/12/27 00:21:37;;;;;;;11.35;2.88;;;5.80;99.90;;;;;;2075270;28;20112;-69
2022/12/27 00:22:39;;;;;;;6.45;3.33;;;5.80;99.90;;;;;;2075491;28;20025;-69
2022/12/27 00:23:41;;;;;;;8.70;3.22;;;5.90;99.90;;;;;;2075668;28;20022;-69
2022/12/27 00:24:42;;;;;;;10.40;2.75;;;5.90;99.90;;;;;;2076108;28;20484;-69
2022/12/27 00:25:42;;;;;;;10.35;2.65;;;5.80;99.90;;;;;;2072602;28;20453;-69
2022/12/27 00:26:43;;;;;;;9.00;2.80;;;5.80;99.90;;;;;;2075180;28;20022;-69
2022/12/27 00:27:44;;;;;;;6.47;2.67;;;5.80;99.90;;;;;;2074284;28;20026;-69
2022/12/27 00:28:44;;;;;;;10.38;2.90;;;5.80;99.90;;;;;;2075591;28;20033;-69
2022/12/27 00:29:45;;;;;;;7.03;3.00;;;5.80;99.90;;;;;;2072469;28;20196;-70
2022/12/27 00:30:45;;;;;;;8.07;2.83;;;5.80;99.90;;;;;;2073199;28;20097;-69
2022/12/27 00:31:46;;;;;;;11.55;3.25;;;5.80;99.90;;;;;;2071768;28;20053;-69
2022/12/27 00:32:46;;;;;;;15.10;3.13;;;5.90;99.90;;;;;;2074857;28;20045;-69
2022/12/27 00:33:49;;;;;;;8.45;2.80;;;5.80;99.90;;;;;;2073967;28;20495;-69
2022/12/27 00:34:50;;;;;;;11.23;2.95;;;5.90;99.90;;;;;;2076005;28;20556;-69
2022/12/27 00:35:50;;;;;;;9.52;3.53;;;5.80;99.90;;;;;;2076381;28;20436;-69
2022/12/27 00:36:51;;;;;;;7.82;2.88;;;5.80;99.90;;;;;;2077236;28;20103;-69
2022/12/27 00:37:51;;;;;;;8.40;3.72;;;5.80;99.90;;;;;;2072433;28;20026;-69
2022/12/27 00:38:53;;;;;;;9.80;3.53;;;5.80;99.90;;;;;;2073967;28;20128;-69
2022/12/27 00:39:54;;;;;;;9.02;3.22;;;5.80;99.90;;;;;;2074215;28;20035;-69
2022/12/27 00:40:54;;;;;;;9.20;3.70;;;5.80;99.90;;;;;;2073321;28;20041;-69
2022/12/27 00:41:55;;;;;;;10.88;3.45;;;5.80;99.90;;;;;;2073930;28;20039;-69
2022/12/27 00:42:55;;;;;;;12.00;3.75;;;5.80;99.90;;;;;;2073312;28;20042;-69
2022/12/27 00:43:56;;;;;;;10.43;3.15;;;5.80;99.90;;;;;;2073727;28;20034;-69
2022/12/27 00:44:56;;;;;;;12.27;2.95;;;5.80;99.90;;;;;;2074006;28;20037;-69
2022/12/27 00:45:57;;;;;;;12.93;3.67;;;5.80;99.90;;;;;;2072153;28;20628;-69
2022/12/27 00:46:57;;;;;;;10.80;3.25;;;5.80;99.90;;;;;;2073915;28;20112;-69
2022/12/27 00:47:58;;;;;;;8.98;2.67;;;5.90;99.90;;;;;;2075619;28;20436;-69
2022/12/27 00:48:58;;;;;;;7.78;3.17;;;5.80;99.90;;;;;;2073738;28;20052;-69
2022/12/27 00:49:59;;;;;;;11.02;3.00;;;5.80;99.90;;;;;;2071393;28;20508;-69
2022/12/27 00:51:03;;;;;;;8.38;3.10;;;5.80;99.90;;;;;;2073904;28;20076;-69
2022/12/27 00:52:03;;;;;;;12.55;3.47;;;5.90;99.90;;;;;;2065122;28;20035;-69
2022/12/27 00:53:04;;;;;;;12.52;3.25;;;5.80;99.90;;;;;;2071183;28;20155;-69
2022/12/27 00:54:06;;;;;;;11.02;3.75;;;5.80;99.90;;;;;;2072388;28;20033;-69
2022/12/27 00:55:07;;;;;;;15.45;3.33;;;5.80;99.90;;;;;;2075179;28;20056;-69
2022/12/27 00:56:20;;;;;;;16.65;4.28;;;5.80;99.90;;;;;;2073875;28;20029;-69
2022/12/27 00:57:20;;;;;;;14.43;3.40;;;5.80;99.90;;;;;;2072443;28;20028;-69
2022/12/27 00:58:21;;;;;;;14.15;3.60;;;5.80;99.90;;;;;;2073629;28;20032;-69
2022/12/27 00:59:21;;;;;;;12.27;3.80;;;5.80;99.90;;;;;;2073095;28;20453;-69
2022/12/27 01:00:22;;;;;;;9.27;3.13;;;5.80;99.90;;;;;;2073615;28;20034;-69
2022/12/27 01:01:24;;;;;;;10.35;3.60;;;5.80;99.90;;;;;;2074902;28;20026;-69
2022/12/27 01:02:25;;;;;;;12.00;3.80;;;5.80;99.90;;;;;;2075380;28;20814;-69
2022/12/27 01:03:25;;;;;;;11.38;3.08;;;5.80;99.90;;;;;;2074204;28;20503;-69
2022/12/27 01:04:26;;;;;;;11.25;3.47;;;5.80;99.90;;;;;;2072460;28;20497;-69
2022/12/27 01:05:26;;;;;;;10.45;3.53;;;5.80;99.90;;;;;;2076649;28;20038;-69
2022/12/27 01:06:31;;;;;;;10.13;3.05;;;5.80;99.90;;;;;;2072696;28;20140;-70
2022/12/27 01:07:31;;;;;;;15.85;4.30;;;5.80;99.90;;;;;;2070749;28;20060;-69
2022/12/27 01:08:32;;;;;;;9.45;3.20;;;5.80;99.90;;;;;;2073892;28;20716;-69
2022/12/27 01:09:32;;;;;;;8.70;3.35;;;5.80;99.90;;;;;;2072320;28;20104;-69
2022/12/27 01:10:33;;;;;;;8.32;3.40;;;5.80;99.90;;;;;;2074575;28;20100;-69
2022/12/27 01:11:34;;;;;;;10.88;3.13;;;5.70;99.90;;;;;;2072698;28;20099;-69
2022/12/27 01:12:35;;;;;;;7.88;2.85;;;5.80;99.90;;;;;;2074298;28;20037;-69
2022/12/27 01:13:36;;;;;;;10.27;2.88;;;5.70;99.90;;;;;;2073622;28;20022;-69
2022/12/27 01:14:37;;;;;;;9.48;3.38;;;5.70;99.90;;;;;;2075004;28;20112;-69
2022/12/27 01:15:41;;;;;;;10.68;3.95;;;5.80;99.90;;;;;;2073750;28;20026;-69
2022/12/27 01:16:42;;;;;;;9.50;3.75;;;5.70;99.90;;;;;;2074049;28;20021;-69
2022/12/27 01:17:43;;;;;;;8.93;3.53;;;5.70;99.90;;;;;;2074156;28;20626;-69
2022/12/27 01:18:43;;;;;;;13.30;3.70;;;5.70;99.90;;;;;;2072818;28;20159;-69
2022/12/27 01:19:44;;;;;;;7.38;3.08;;;5.70;99.90;;;;;;2072727;28;20030;-69
2022/12/27 01:20:44;;;;;;;9.32;3.20;;;5.70;99.90;;;;;;2073779;28;20141;-69
2022/12/27 01:21:45;;;;;;;11.00;3.30;;;5.70;99.90;;;;;;2074167;28;20029;-69
2022/12/27 01:22:45;;;;;;;14.18;4.57;;;5.70;99.90;;;;;;2076935;28;20100;-69
2022/12/27 01:23:46;;;;;;;8.07;3.08;;;5.70;99.90;;;;;;2075382;28;20037;-69
2022/12/27 01:24:47;;;;;;;9.45;3.60;;;5.70;99.90;;;;;;2073433;28;20030;-69
2022/12/27 01:25:47;;;;;;;8.90;2.90;;;5.70;99.90;;;;;;2074196;28;20072;-69
2022/12/27 01:26:48;;;;;;;10.70;3.67;;;5.70;99.90;;;;;;2072955;28;20030;-69
2022/12/27 01:27:49;;;;;;;6.80;2.72;;;5.70;99.90;;;;;;2074547;28;20033;-69
2022/12/27 01:28:51;;;;;;;14.70;3.20;;;5.70;99.90;;;;;;2073814;28;20022;-69
2022/12/27 01:29:52;;;;;;;11.75;3.70;;;5.70;99.90;;;;;;2071608;28;20044;-69
2022/12/27 01:30:53;;;;;;;9.85;3.17;;;5.70;99.90;;;;;;2072775;28;20040;-69
2022/12/27 01:31:54;;;;;;;11.40;3.72;;;5.70;99.90;;;;;;2073387;28;20033;-69
2022/12/27 01:32:54;;;;;;;14.95;3.65;;;5.70;99.90;;;;;;2074996;28;20041;-69
2022/12/27 01:33:57;;;;;;;7.28;3.15;;;5.70;99.90;;;;;;2074845;28;20618;-69
2022/12/27 01:34:58;;;;;;;10.75;3.97;;;5.70;99.90;;;;;;2072233;28;20036;-69
2022/12/27 01:36:09;;;;;;;10.93;3.63;;;5.70;99.90;;;;;;2073060;28;20076;-69
2022/12/27 01:37:10;;;;;;;9.20;3.60;;;5.70;99.90;;;;;;2071116;28;20044;-69
2022/12/27 01:38:10;;;;;;;11.35;3.10;;;5.70;99.90;;;;;;2072669;28;20026;-69
2022/12/27 01:39:12;;;;;;;9.50;3.45;;;5.70;99.90;;;;;;2074787;28;20116;-70
2022/12/27 01:40:13;;;;;;;9.23;3.50;;;5.70;99.90;;;;;;2071648;28;20117;-69
2022/12/27 01:42:52;;;;;;;10.23;3.55;;;5.70;99.90;;;;;;2074076;28;20030;-69
2022/12/27 01:43:52;;;;;;;13.10;3.55;;;5.70;99.90;;;;;;2074276;28;20037;-69
2022/12/27 01:44:57;;;;;;;9.82;3.97;;;5.70;99.90;;;;;;2071371;28;20092;-71
2022/12/27 01:45:58;;;;;;;8.82;3.20;;;5.70;99.90;;;;;;2075955;28;21934;-70
2022/12/27 01:47:00;;;;;;;11.93;3.40;;;5.70;99.90;;;;;;2073174;28;20061;-69
2022/12/27 01:48:16;;;;;;;11.05;3.47;;;5.70;99.90;;;;;;2072973;28;20034;-69
2022/12/27 01:49:17;;;;;;;11.38;3.80;;;5.70;99.90;;;;;;2072673;28;21327;-69
2022/12/27 01:50:24;;;;;;;9.32;3.80;;;5.70;99.90;;;;;;2072375;28;20465;-69
2022/12/27 01:51:24;;;;;;;9.10;3.28;;;5.70;99.90;;;;;;2072460;28;20054;-69
2022/12/27 01:52:31;;;;;;;12.20;3.28;;;5.70;99.90;;;;;;2073886;28;20033;-69
2022/12/27 01:53:38;;;;;;;11.18;3.97;;;5.70;99.90;;;;;;2074911;28;20014;-69
2022/12/27 01:54:39;;;;;;;7.28;3.30;;;5.70;99.90;;;;;;2073169;28;20512;-69
2022/12/27 01:56:00;;;;;;;8.90;3.42;;;5.70;99.90;;;;;;2073573;28;20018;-69
2022/12/27 01:57:02;;;;;;;9.00;3.75;;;5.70;99.90;;;;;;2071011;28;20022;-69
2022/12/27 01:58:12;;;;;;;7.88;3.13;;;5.70;99.90;;;;;;2072312;28;20026;-69
2022/12/27 01:59:13;;;;;;;10.88;3.03;;;5.70;99.90;;;;;;2072521;28;20033;-70
2022/12/27 02:00:17;;;;;;;16.27;3.65;;;5.70;99.90;;;;;;2073171;28;20040;-69
2022/12/27 02:01:24;;;;;;;11.98;3.22;;;5.70;99.90;;;;;;2074079;28;20489;-68
2022/12/27 02:02:25;;;;;;;9.85;3.08;;;5.70;99.90;;;;;;2072655;28;20067;-68
2022/12/27 02:03:31;;;;;;;10.32;3.33;;;5.70;99.90;;;;;;2075209;28;20034;-68
2022/12/27 02:04:33;;;;;;;9.63;3.42;;;5.70;99.90;;;;;;2074952;28;20060;-68
2022/12/27 02:05:34;;;;;;;9.55;3.50;;;5.70;99.90;;;;;;2073603;28;20482;-68
2022/12/27 02:06:37;;;;;;;8.55;2.85;;;5.70;99.90;;;;;;2073175;28;20018;-68
2022/12/27 02:08:05;;;;;;;11.23;3.53;;;5.70;99.90;;;;;;2072802;28;20030;-68
2022/12/27 02:09:42;;;;;;;8.23;3.47;;;5.70;99.90;;;;;;2071619;28;20627;-69
2022/12/27 02:10:44;;;;;;;9.38;3.33;;;5.70;99.90;;;;;;2073864;28;20041;-68
2022/12/27 02:11:51;;;;;;;12.35;3.55;;;5.70;99.90;;;;;;2072869;28;20022;-68
2022/12/27 02:12:51;;;;;;;9.15;3.10;;;5.70;99.90;;;;;;2073777;28;20030;-68
2022/12/27 02:13:52;;;;;;;12.05;3.60;;;5.70;99.90;;;;;;2073477;28;20025;-68
2022/12/27 02:14:53;;;;;;;10.07;3.88;;;5.70;99.90;;;;;;2072404;28;20092;-68
2022/12/27 02:15:53;;;;;;;8.73;3.85;;;5.70;99.90;;;;;;2072051;28;20030;-68
2022/12/27 02:16:57;;;;;;;7.55;3.30;;;5.70;99.90;;;;;;2074899;28;20050;-68
2022/12/27 02:17:57;;;;;;;11.27;4.03;;;5.70;99.90;;;;;;2073145;28;20053;-68
2022/12/27 02:18:58;;;;;;;10.32;3.25;;;5.70;99.90;;;;;;2072823;28;20049;-68
2022/12/27 02:20:15;;;;;;;9.70;3.72;;;5.70;99.90;;;;;;2074531;28;20026;-68
2022/12/27 02:21:40;;;;;;;10.10;3.10;;;5.70;99.90;;;;;;2074786;28;20048;-68
2022/12/27 02:25:07;;;;;;;8.80;3.03;;;5.70;99.90;;;;;;2074111;28;20068;-68
2022/12/27 02:26:37;;;;;;;7.68;2.85;;;5.70;99.90;;;;;;2072576;28;20081;-68
2022/12/27 02:28:24;;;;;;;13.43;3.35;;;5.60;99.90;;;;;;2064397;28;20499;-68
2022/12/27 02:30:12;;;;;;;6.65;2.83;;;5.70;99.90;;;;;;2061970;28;20042;-68
2022/12/27 02:31:28;;;;;;;8.45;3.22;;;5.60;99.90;;;;;;2074222;28;20073;-68
2022/12/27 02:32:45;;;;;;;9.55;4.22;;;5.60;99.90;;;;;;2073976;28;20393;-68
2022/12/27 02:33:50;;;;;;;8.93;3.45;;;5.60;99.90;;;;;;2073590;28;20198;-68
2022/12/27 02:35:02;;;;;;;11.93;3.55;;;5.60;99.90;;;;;;2073260;28;20030;-68
2022/12/27 02:36:08;;;;;;;8.55;3.80;;;5.60;99.90;;;;;;2073227;28;20029;-68
2022/12/27 02:37:11;;;;;;;7.47;3.20;;;5.60;99.90;;;;;;2071414;28;20109;-68
2022/12/27 02:38:18;;;;;;;11.38;3.25;;;5.70;99.90;;;;;;2075463;28;20604;-68
2022/12/27 02:39:21;;;;;;;11.38;3.42;;;5.70;99.90;;;;;;2074655;28;20029;-68
2022/12/27 02:53:26;;;;;;;11.88;3.70;;;5.60;99.90;;;;;;2071774;28;20026;-68
2022/12/27 02:54:57;;;;;;;7.38;3.15;;;5.60;99.90;;;;;;2073798;28;20079;-68
2022/12/27 02:57:59;;;;;;;5.32;2.88;;;5.60;99.90;;;;;;2071976;28;20057;-68
2022/12/27 02:59:12;;;;;;;10.55;3.90;;;5.60;99.90;;;;;;2073216;28;20072;-68
2022/12/27 03:03:34;;;;;;;8.93;3.13;;;5.60;99.90;;;;;;2075162;28;20433;-68
2022/12/27 03:05:02;;;;;;;10.50;3.33;;;5.60;99.90;;;;;;2073436;28;20063;-68
2022/12/27 03:06:38;;;;;;;11.45;3.22;;;5.60;99.90;;;;;;2073654;28;20049;-68
2022/12/27 03:07:39;;;;;;;9.48;3.00;;;5.60;99.90;;;;;;2071148;28;20485;-68
2022/12/27 03:09:06;;;;;;;10.45;3.42;;;5.60;99.90;;;;;;2073645;28;20438;-68
2022/12/27 03:16:54;;;;;;;10.45;3.60;;;5.60;99.90;;;;;;2073864;28;20134;-68
2022/12/27 03:18:04;;;;;;;8.40;3.00;;;5.60;99.90;;;;;;2076915;28;20036;-68
2022/12/27 03:25:26;;;;;;;6.03;2.70;;;5.60;99.90;;;;;;2077650;28;20513;-68
2022/12/27 03:26:09;;;;;;;13.55;3.40;;;5.60;99.90;;;;;;2073594;28;20030;-68
2022/12/27 03:27:27;;;;;;;11.65;3.00;;;5.60;99.90;;;;;;2073931;28;20029;-68
2022/12/27 03:34:31;;;;;;;9.05;3.00;;;5.60;99.90;;;;;;2076065;28;20105;-68
2022/12/27 03:35:39;;;;;;;5.65;2.75;;;5.60;99.90;;;;;;2074486;28;20722;-68
2022/12/27 03:38:04;;;;;;;12.40;3.17;;;5.60;99.90;;;;;;2074908;28;20017;-68
2022/12/27 03:39:11;;;;;;;8.13;2.83;;;5.60;99.90;;;;;;2076388;28;20021;-68
2022/12/27 03:40:20;;;;;;;11.27;3.65;;;5.60;99.90;;;;;;2071900;28;20076;-68
2022/12/27 03:43:30;;;;;;;12.13;3.88;;;5.60;99.90;;;;;;2072507;28;20026;-68
2022/12/27 03:44:25;;;;;;;11.50;3.05;;;5.60;99.90;;;;;;2073509;28;20080;-68
2022/12/27 03:47:08;;;;;;;9.75;3.50;;;5.60;99.90;;;;;;2073319;28;20025;-68
2022/12/27 03:48:12;;;;;;;8.10;3.60;;;5.60;99.90;;;;;;2073900;28;20041;-68
2022/12/27 03:49:35;;;;;;;7.03;3.05;;;5.60;99.90;;;;;;2074560;28;20149;-68
2022/12/27 03:50:43;;;;;;;11.30;3.28;;;5.60;99.90;;;;;;2074394;28;20548;-68
2022/12/27 03:51:54;;;;;;;9.70;3.05;;;5.70;99.90;;;;;;2073826;28;20579;-68
2022/12/27 03:52:59;;;;;;;11.80;3.33;;;5.70;99.90;;;;;;2075523;28;20473;-68
2022/12/27 03:54:07;;;;;;;11.70;3.28;;;5.70;99.90;;;;;;2075237;28;20018;-68
2022/12/27 03:55:09;;;;;;;12.38;3.97;;;5.70;99.90;;;;;;2073936;28;20025;-68
2022/12/27 03:56:10;;;;;;;13.02;4.03;;;5.70;99.90;;;;;;2078535;28;20731;-68
2022/12/27 03:57:17;;;;;;;10.02;3.22;;;5.70;99.90;;;;;;2068826;28;20825;-68
2022/12/27 03:58:17;;;;;;;9.95;3.75;;;5.70;99.90;;;;;;2073640;28;20018;-68
2022/12/27 03:59:18;;;;;;;15.07;3.20;;;5.70;99.90;;;;;;2075249;28;20032;-68
2022/12/27 04:00:19;;;;;;;11.82;3.47;;;5.70;99.90;;;;;;2072609;28;20037;-68
2022/12/27 04:01:19;;;;;;;10.68;3.53;;;5.70;99.90;;;;;;2073502;28;20080;-68
2022/12/27 04:02:20;;;;;;;12.70;3.70;;;5.70;99.90;;;;;;2077568;28;20036;-68
2022/12/27 04:03:20;;;;;;;8.77;2.83;;;5.70;99.90;;;;;;2078076;28;20040;-68
2022/12/27 04:04:21;;;;;;;8.10;3.45;;;5.80;99.90;;;;;;2073109;28;21015;-68
2022/12/27 04:05:21;;;;;;;11.20;3.38;;;5.70;99.90;;;;;;2076134;28;20472;-68
2022/12/27 04:06:22;;;;;;;9.70;3.65;;;5.70;99.90;;;;;;2075606;28;20037;-68
2022/12/27 04:07:22;;;;;;;9.15;3.05;;;5.80;99.90;;;;;;2074060;28;20047;-68
2022/12/27 04:34:44;;;;;;;8.27;3.15;;;5.70;99.90;;;;;;2073921;28;20026;-68
2022/12/27 04:35:44;;;;;;;8.48;3.22;;;5.70;99.90;;;;;;2078233;28;20100;-68
2022/12/27 04:36:45;;;;;;;9.75;3.95;;;5.70;99.90;;;;;;2072014;28;20029;-68
2022/12/27 04:37:45;;;;;;;8.18;2.75;;;5.80;99.90;;;;;;2074150;28;20037;-68
2022/12/27 04:38:46;;;;;;;9.30;3.38;;;5.80;99.90;;;;;;2074439;28;20113;-68
2022/12/27 04:54:56;;;;;;;10.85;3.20;;;5.70;99.90;;;;;;2073941;28;20077;-68
2022/12/27 04:55:57;;;;;;;11.68;3.78;;;5.70;99.90;;;;;;2075413;28;20053;-68
2022/12/27 04:56:58;;;;;;;10.98;3.53;;;5.70;99.90;;;;;;2072229;28;20030;-68
2022/12/27 04:57:58;;;;;;;13.02;4.25;;;5.80;99.90;;;;;;2074604;28;20441;-68
2022/12/27 05:03:00;;;;;;;8.63;3.00;;;5.80;99.90;;;;;;2074063;28;20482;-68
2022/12/27 05:04:01;;;;;;;14.15;3.10;;;5.80;99.90;;;;;;2074422;28;20033;-69
2022/12/27 05:05:01;;;;;;;7.55;2.88;;;5.80;99.90;;;;;;2073498;28;20034;-68
2022/12/27 05:06:02;;;;;;;8.38;3.00;;;5.80;99.90;;;;;;2074899;28;20037;-68
2022/12/27 05:14:00;;;;;;;8.63;3.15;;;5.80;99.90;;;;;;2072205;28;20029;-68
2022/12/27 05:15:00;;;;;;;10.23;2.97;;;5.80;99.90;;;;;;2072164;28;20026;-68
2022/12/27 05:16:01;;;;;;;6.95;3.28;;;5.80;99.90;;;;;;2072690;28;20032;-68
2022/12/27 05:17:01;;;;;;;8.43;2.88;;;5.80;99.90;;;;;;2073560;28;20033;-68
2022/12/27 05:18:02;;;;;;;9.23;3.10;;;5.80;99.90;;;;;;2073279;28;20108;-68
2022/12/27 05:19:04;;;;;;;11.18;3.92;;;5.90;99.90;;;;;;2073759;28;20033;-68
2022/12/27 05:20:06;;;;;;;9.90;3.63;;;5.90;99.90;;;;;;2072075;28;20075;-68
2022/12/27 05:21:07;;;;;;;12.85;3.28;;;5.90;99.90;;;;;;2074390;28;20029;-68
2022/12/27 05:26:04;;;;;;;8.77;2.70;;;5.90;99.90;;;;;;2074806;28;20033;-68
2022/12/27 05:27:05;;;;;;;9.63;3.42;;;5.90;99.90;;;;;;2072679;28;20061;-68
2022/12/27 05:28:08;;;;;;;13.32;3.13;;;5.90;99.90;;;;;;2074382;28;20042;-68
2022/12/27 05:29:09;;;;;;;13.23;3.45;;;5.90;99.90;;;;;;2073652;28;20481;-68
2022/12/27 05:30:10;;;;;;;9.60;2.95;;;5.90;99.90;;;;;;2072770;28;20699;-68
2022/12/27 05:31:10;;;;;;;11.70;3.28;;;6.00;99.90;;;;;;2074690;28;20025;-68
2022/12/27 05:32:11;;;;;;;7.72;2.83;;;6.00;99.90;;;;;;2074831;28;20034;-68
2022/12/27 05:33:11;;;;;;;12.10;3.45;;;6.00;99.90;;;;;;2072192;28;20121;-68
2022/12/27 05:34:12;;;;;;;11.70;3.20;;;6.00;99.90;;;;;;2073175;28;20530;-68
2022/12/27 05:35:12;;;;;;;10.85;3.20;;;6.00;99.90;;;;;;2073845;28;20538;-68
2022/12/27 05:36:13;;;;;;;9.52;2.85;;;6.00;99.90;;;;;;2073389;28;20099;-68
2022/12/27 05:37:14;;;;;;;10.57;3.58;;;6.00;99.90;;;;;;2074758;28;20120;-68
2022/12/27 05:38:14;;;;;;;10.20;3.13;;;6.10;99.90;;;;;;2071729;28;20105;-68
2022/12/27 05:39:15;;;;;;;12.30;4.00;;;6.10;99.90;;;;;;2073426;28;20660;-68
2022/12/27 05:40:15;;;;;;;8.00;3.47;;;6.10;99.90;;;;;;2074681;28;20026;-68
2022/12/27 05:41:16;;;;;;;8.65;3.55;;;6.10;99.90;;;;;;2072522;28;20033;-68
2022/12/27 05:42:17;;;;;;;10.98;3.20;;;6.10;99.90;;;;;;2073523;28;20041;-68
2022/12/27 05:43:17;;;;;;;10.95;3.15;;;6.10;99.90;;;;;;2072134;28;20037;-68
2022/12/27 05:44:18;;;;;;;11.82;3.08;;;6.10;99.90;;;;;;2074399;28;20078;-68
2022/12/27 05:45:19;;;;;;;10.77;4.53;;;6.10;99.90;;;;;;2074053;28;20033;-68
2022/12/27 05:46:20;;;;;;;8.88;3.25;;;6.10;99.90;;;;;;2075052;28;20026;-68
2022/12/27 05:47:21;;;;;;;10.73;3.50;;;6.10;99.90;;;;;;2072892;28;20080;-68
2022/12/27 05:48:22;;;;;;;7.88;3.35;;;6.10;99.90;;;;;;2072581;28;20083;-68
2022/12/27 05:49:22;;;;;;;5.63;2.78;;;6.20;99.90;;;;;;2073432;28;20433;-68
2022/12/27 05:50:23;;;;;;;10.45;3.30;;;6.20;99.90;;;;;;2073470;28;20156;-68
2022/12/27 05:51:23;;;;;;;10.48;4.28;;;6.20;99.90;;;;;;2074126;28;20683;-68
2022/12/27 05:52:24;;;;;;;9.93;3.53;;;6.20;99.90;;;;;;2070923;28;20117;-68
2022/12/27 05:53:24;;;;;;;10.65;3.42;;;6.20;99.90;;;;;;2074953;28;20033;-68
2022/12/27 05:54:25;;;;;;;9.05;3.60;;;6.20;99.90;;;;;;2072451;28;20033;-68
2022/12/27 05:55:25;;;;;;;13.05;3.33;;;6.30;99.90;;;;;;2073746;28;20026;-68
2022/12/27 05:56:26;;;;;;;9.88;3.40;;;6.30;99.90;;;;;;2076466;28;20029;-68
2022/12/27 05:57:26;;;;;;;11.80;3.40;;;6.30;99.90;;;;;;2071508;28;20033;-68
2022/12/27 05:58:27;;;;;;;14.85;4.78;;;6.30;99.90;;;;;;2072425;28;20033;-68
2022/12/27 05:59:28;;;;;;;13.73;3.75;;;6.30;99.90;;;;;;2073962;28;20037;-68
2022/12/27 06:00:28;;;;;;;13.50;4.57;;;6.30;99.90;;;;;;2072468;28;20394;-68
2022/12/27 06:01:29;;;;;;;12.02;3.90;;;6.30;99.90;;;;;;2074417;28;20025;-68
2022/12/27 06:02:29;;;;;;;9.27;3.80;;;6.30;99.90;;;;;;2072567;28;20037;-68
2022/12/27 06:03:30;;;;;;;11.27;4.25;;;6.30;99.90;;;;;;2072785;28;20029;-68
2022/12/27 06:04:31;;;;;;;16.83;5.95;;;6.30;99.90;;;;;;2073344;28;20037;-68
2022/12/27 06:05:31;;;;;;;11.43;4.15;;;6.40;99.90;;;;;;2072773;28;20026;-68
2022/12/27 06:06:33;;;;;;;11.65;4.43;;;6.40;99.90;;;;;;2073469;28;20030;-68
2022/12/27 06:07:35;;;;;;;14.32;4.38;;;6.40;99.90;;;;;;2073206;28;20021;-68
2022/12/27 06:08:37;;;;;;;9.00;4.03;;;6.40;99.90;;;;;;2072571;28;20036;-68
2022/12/27 06:09:37;;;;;;;12.45;4.32;;;6.40;99.90;;;;;;2073466;28;20528;-68
2022/12/27 06:10:38;;;;;;;12.95;4.47;;;6.40;99.90;;;;;;2072824;28;20092;-68
2022/12/27 06:11:39;;;;;;;7.95;4.22;;;6.40;99.90;;;;;;2074615;28;20417;-68
2022/12/27 06:12:39;;;;;;;13.63;5.32;;;6.40;99.90;;;;;;2074478;28;20145;-68
2022/12/27 06:13:43;;;;;;;11.00;4.70;;;6.40;99.90;;;;;;2074265;28;20036;-68
2022/12/27 06:14:44;;;;;;;11.90;4.60;;;6.40;99.90;;;;;;2073630;28;20031;-68
2022/12/27 06:15:44;;;;;;;12.90;4.82;;;6.40;99.90;;;;;;2075547;28;20022;-68
2022/12/27 06:16:45;;;;;;;11.75;4.72;;;6.50;99.90;;;;;;2075033;28;20025;-68
2022/12/27 06:17:45;;;;;;;17.08;4.85;;;6.50;99.90;;;;;;2073437;28;20755;-68
2022/12/27 06:18:46;;;;;;;12.70;5.10;;;6.50;99.90;;;;;;2071836;28;20010;-68
2022/12/27 06:19:46;;;;;;;12.45;4.82;;;6.50;99.90;;;;;;2070972;28;20564;-68
2022/12/27 06:20:47;;;;;;;13.43;4.82;;;6.50;99.90;;;;;;2075110;28;20030;-68
2022/12/27 06:21:47;;;;;;;11.50;4.75;;;6.50;99.90;;;;;;2072386;28;20025;-68
2022/12/27 06:22:48;;;;;;;13.63;5.40;;;6.50;99.90;;;;;;2073341;28;20038;-68
2022/12/27 06:23:50;;;;;;;10.25;5.47;;;6.50;99.90;;;;;;2072145;28;20025;-68
2022/12/27 06:24:50;;;;;;;11.52;6.03;;;6.50;99.90;;;;;;2072064;28;20036;-69
2022/12/27 06:25:51;;;;;;;17.52;5.53;;;6.50;99.90;;;;;;2072052;28;20505;-69
2022/12/27 06:26:51;;;;;;;12.68;5.10;;;6.50;99.90;;;;;;2071373;28;20389;-68
2022/12/27 06:27:52;;;;;;;11.18;5.30;;;6.50;99.90;;;;;;2071720;28;20525;-68
2022/12/27 06:28:55;;;;;;;12.68;5.85;;;6.50;99.90;;;;;;2072563;28;20080;-68
2022/12/27 06:29:55;;;;;;;14.38;5.65;;;6.50;99.90;;;;;;2073578;28;20068;-68
2022/12/27 06:30:58;;;;;;;10.48;4.70;;;6.60;99.90;;;;;;2072993;28;20041;-69
2022/12/27 06:31:59;;;;;;;10.13;5.13;;;6.50;99.90;;;;;;2073542;28;20022;-68
2022/12/27 06:32:59;;;;;;;12.85;4.32;;;6.50;99.90;;;;;;2073445;28;20088;-68
2022/12/27 06:34:00;;;;;;;13.32;4.95;;;6.50;99.90;;;;;;2073714;28;20045;-68
2022/12/27 06:35:00;;;;;;;12.60;4.82;;;6.50;99.90;;;;;;2074152;28;20765;-68
2022/12/27 06:36:13;;;;;;;11.68;4.32;;;6.50;99.90;;;;;;2072938;28;20092;-68
2022/12/27 06:37:13;;;;;;;10.40;4.28;;;6.50;99.90;;;;;;2072521;28;20072;-68
2022/12/27 06:38:14;;;;;;;11.73;4.85;;;6.50;99.90;;;;;;2071398;28;20030;-68
2022/12/27 06:39:16;;;;;;;17.10;5.50;;;6.50;99.90;;;;;;2071211;28;20053;-68
2022/12/27 06:40:17;;;;;;;11.35;4.82;;;6.50;99.90;;;;;;2074474;28;20060;-68
2022/12/27 06:41:17;;;;;;;12.18;4.95;;;6.50;99.90;;;;;;2073461;28;20124;-68
2022/12/27 06:42:18;;;;;;;11.40;5.10;;;6.50;99.90;;;;;;2074341;28;20812;-69
2022/12/27 06:43:18;;;;;;;11.93;5.32;;;6.50;99.90;;;;;;2072346;28;20056;-69
2022/12/27 06:44:19;;;;;;;9.48;4.40;;;6.50;99.90;;;;;;2072423;28;20026;-68
2022/12/27 06:45:20;;;;;;;13.10;5.05;;;6.50;99.90;;;;;;2073021;28;20041;-68
2022/12/27 06:46:23;;;;;;;13.88;5.10;;;6.50;99.90;;;;;;2073143;28;20033;-68
2022/12/27 06:47:23;;;;;;;12.27;4.95;;;6.50;99.90;;;;;;2074378;28;20061;-68
2022/12/27 06:48:27;;;;;;;18.27;5.75;;;6.50;99.90;;;;;;2073704;28;20049;-68
2022/12/27 06:49:28;;;;;;;10.52;4.93;;;6.50;99.90;;;;;;2073836;28;20014;-68
2022/12/27 06:50:28;;;;;;;14.95;4.32;;;6.50;99.90;;;;;;2075365;28;20080;-68
2022/12/27 06:51:29;;;;;;;13.45;4.88;;;6.50;99.90;;;;;;2077355;28;20021;-68
2022/12/27 06:52:29;;;;;;;9.73;4.72;;;6.50;99.90;;;;;;2073523;28;20108;-69
2022/12/27 06:53:30;;;;;;;11.32;4.90;;;6.50;99.90;;;;;;2071518;28;20136;-68
2022/12/27 06:54:31;;;;;;;10.82;4.72;;;6.50;99.90;;;;;;2073902;28;20025;-68
2022/12/27 06:55:31;;;;;;;13.25;4.68;;;6.50;99.90;;;;;;2074231;28;20398;-68
2022/12/27 06:56:32;;;;;;;14.48;5.05;;;6.50;99.90;;;;;;2074573;28;20557;-68
2022/12/27 06:57:32;;;;;;;20.80;7.70;;;6.50;99.90;;;;;;2071908;28;20068;-68
2022/12/27 06:58:33;;;;;;;14.77;5.00;;;6.50;99.90;;;;;;2075035;28;20029;-68
2022/12/27 06:59:33;;;;;;;16.67;5.53;;;6.50;99.90;;;;;;2073735;28;20025;-68
2022/12/27 07:00:34;;;;;;;11.27;4.57;;;6.50;99.90;;;;;;2073761;28;20701;-68
2022/12/27 07:01:34;;;;;;;15.88;4.72;;;6.50;99.90;;;;;;2075622;28;20105;-68
2022/12/27 07:02:36;;;;;;;15.43;4.47;;;6.50;99.90;;;;;;2075276;28;20018;-68
2022/12/27 07:03:37;;;;;;;16.52;4.78;;;6.50;99.90;;;;;;2074011;28;20490;-68
2022/12/27 07:04:38;;;;;;;10.45;4.50;;;6.50;99.90;;;;;;2074772;28;20507;-68
2022/12/27 07:05:39;;;;;;;13.15;5.13;;;6.50;99.90;;;;;;2074078;28;20665;-68
2022/12/27 07:06:40;;;;;;;12.98;4.47;;;6.50;99.90;;;;;;2073355;28;20025;-68
2022/12/27 07:07:40;;;;;;;13.70;4.63;;;6.50;99.90;;;;;;2074396;28;20055;-68
2022/12/27 07:08:41;;;;;;;10.88;4.68;;;6.50;99.90;;;;;;2072781;28;20033;-68
2022/12/27 07:09:41;;;;;;;8.73;4.60;;;6.50;99.90;;;;;;2074645;28;20060;-68
2022/12/27 07:10:42;;;;;;;11.38;4.60;;;6.50;99.90;;;;;;2074610;28;20034;-68
2022/12/27 07:11:42;;;;;;;11.35;4.57;;;6.50;99.90;;;;;;2074293;28;20033;-68